createdAt,value
2023-03-25T00:01:38.919Z,1.35
2023-03-25T00:03:42.822Z,1.20
2023-03-25T00:05:45.429Z,1.00
2023-03-25T00:07:51.665Z,1.30
2023-03-25T00:09:54.239Z,1.60
2023-03-25T00:11:58.140Z,1.20
2023-03-25T00:14:00.912Z,1.85
2023-03-25T00:16:07.150Z,1.52
2023-03-25T00:18:09.734Z,1.00
2023-03-25T00:20:14.027Z,1.10
2023-03-25T00:22:16.601Z,1.10
2023-03-25T00:24:19.412Z,1.08
2023-03-25T00:26:22.328Z,1.20
2023-03-25T00:28:27.012Z,1.20
2023-03-25T00:30:29.682Z,1.13
2023-03-25T00:32:32.374Z,1.17
2023-03-25T00:34:41.649Z,1.20
2023-03-25T00:36:45.608Z,0.82
2023-03-25T00:38:49.964Z,1.08
2023-03-25T00:40:53.098Z,0.93
2023-03-25T00:42:55.897Z,0.77
2023-03-25T00:44:59.839Z,0.70
2023-03-25T00:47:02.414Z,0.93
2023-03-25T00:49:05.488Z,0.90
2023-03-25T00:51:09.877Z,1.05
2023-03-25T00:53:12.605Z,0.80
2023-03-25T00:55:15.607Z,0.90
2023-03-25T00:57:18.297Z,1.00
2023-03-25T00:59:21.118Z,0.75
2023-03-25T01:01:28.547Z,0.65
2023-03-25T01:03:31.372Z,0.70
2023-03-25T01:05:34.169Z,1.00
2023-03-25T01:07:37.232Z,1.50
2023-03-25T01:09:41.578Z,0.57
2023-03-25T01:11:45.782Z,0.75
2023-03-25T01:13:48.431Z,0.70
2023-03-25T01:15:51.397Z,0.60
2023-03-25T01:17:55.692Z,1.10
2023-03-25T01:19:58.474Z,0.75
2023-03-25T01:22:01.229Z,1.08
2023-03-25T01:24:03.903Z,0.65
2023-03-25T01:26:07.021Z,0.70
2023-03-25T01:28:09.609Z,0.70
2023-03-25T01:30:13.606Z,0.90
2023-03-25T01:32:16.360Z,0.93
2023-03-25T01:34:20.391Z,0.60
2023-03-25T01:36:24.624Z,0.55
2023-03-25T01:38:27.356Z,0.73
2023-03-25T01:40:30.084Z,0.80
2023-03-25T01:42:32.717Z,0.88
2023-03-25T01:45:21.024Z,0.90
2023-03-25T01:47:26.708Z,0.80
2023-03-25T01:49:38.879Z,0.70
2023-03-25T01:51:45.485Z,0.82
2023-03-25T01:53:48.824Z,0.88
2023-03-25T01:55:54.569Z,1.00
2023-03-25T01:57:59.605Z,0.80
2023-03-25T02:00:08.588Z,0.80
2023-03-25T02:02:17.675Z,0.60
2023-03-25T02:04:27.305Z,0.65
2023-03-25T02:06:39.192Z,0.50
2023-03-25T02:10:46.796Z,0.57
2023-03-25T02:12:49.355Z,0.57
2023-03-25T02:14:52.306Z,0.50
2023-03-25T02:17:05.114Z,0.70
2023-03-25T02:19:32.992Z,0.50
2023-03-25T02:22:11.638Z,0.82
2023-03-25T02:24:45.893Z,0.60
2023-03-25T02:27:14.370Z,0.43
2023-03-25T02:29:30.154Z,0.70
2023-03-25T02:31:59.896Z,0.80
2023-03-25T02:34:37.794Z,0.63
2023-03-25T02:37:05.011Z,0.88
2023-03-25T02:39:14.313Z,0.90
2023-03-25T02:41:23.952Z,0.70
2023-03-25T02:43:33.316Z,0.60
2023-03-25T02:45:42.136Z,0.80
2023-03-25T02:47:48.636Z,0.70
2023-03-25T02:49:56.873Z,0.95
2023-03-25T02:52:06.368Z,0.80
2023-03-25T02:54:13.608Z,0.98
2023-03-25T02:56:21.371Z,0.80
2023-03-25T02:58:24.804Z,0.77
2023-03-25T03:00:29.943Z,1.33
2023-03-25T03:02:34.117Z,0.80
2023-03-25T03:04:49.997Z,0.90
2023-03-25T03:06:54.811Z,0.88
2023-03-25T03:09:25.390Z,0.75
2023-03-25T03:11:30.946Z,0.60
2023-03-25T03:13:48.398Z,0.50
2023-03-25T03:16:00.975Z,0.73
2023-03-25T03:18:13.381Z,0.90
2023-03-25T03:20:22.250Z,0.77
2023-03-25T03:22:40.757Z,0.65
2023-03-25T03:24:48.807Z,0.68
2023-03-25T03:26:58.386Z,1.13
2023-03-25T03:29:08.342Z,0.75
2023-03-25T03:31:48.835Z,0.50
2023-03-25T03:33:50.620Z,0.90
2023-03-25T03:35:58.666Z,0.60
2023-03-25T03:38:04.835Z,0.70
2023-03-25T03:40:14.540Z,0.80
2023-03-25T03:42:22.559Z,0.50
2023-03-25T03:44:29.584Z,1.63
2023-03-25T03:46:37.619Z,0.80
2023-03-25T03:48:45.494Z,0.75
2023-03-25T03:50:53.882Z,0.70
2023-03-25T03:53:03.493Z,0.63
2023-03-25T03:55:13.924Z,0.60
2023-03-25T03:57:21.395Z,0.57
2023-03-25T03:59:28.825Z,0.70
2023-03-25T04:01:35.752Z,0.60
2023-03-25T04:03:43.837Z,0.65
2023-03-25T04:05:54.759Z,0.95
2023-03-25T04:08:00.903Z,0.85
2023-03-25T04:10:14.720Z,0.63
2023-03-25T04:12:23.099Z,0.60
2023-03-25T04:14:26.245Z,0.80
2023-03-25T04:16:29.547Z,0.68
2023-03-25T04:18:33.674Z,0.70
2023-03-25T04:20:37.350Z,0.85
2023-03-25T04:22:45.262Z,0.60
2023-03-25T04:24:49.669Z,0.77
2023-03-25T04:26:53.069Z,1.13
2023-03-25T04:29:00.573Z,0.60
2023-03-25T04:31:07.499Z,0.80
2023-03-25T04:33:10.166Z,0.85
2023-03-25T04:35:12.870Z,0.77
2023-03-25T04:37:15.554Z,1.08
2023-03-25T04:39:22.420Z,0.50
2023-03-25T04:41:25.694Z,1.00
2023-03-25T04:43:28.398Z,1.00
2023-03-25T04:45:36.311Z,0.90
2023-03-25T04:47:44.999Z,0.80
2023-03-25T04:49:48.084Z,0.77
2023-03-25T04:51:51.760Z,1.13
2023-03-25T04:53:54.380Z,1.10
2023-03-25T04:55:58.640Z,1.10
2023-03-25T04:58:01.253Z,1.00
2023-03-25T05:00:05.217Z,0.80
2023-03-25T05:02:13.603Z,1.02
2023-03-25T05:04:17.979Z,1.15
2023-03-25T05:06:20.558Z,1.00
2023-03-25T05:08:23.250Z,1.10
2023-03-25T05:10:29.497Z,0.73
2023-03-25T05:12:32.102Z,1.00
2023-03-25T05:14:34.654Z,0.80
2023-03-25T05:16:37.557Z,0.80
2023-03-25T05:18:41.467Z,0.80
2023-03-25T05:20:46.734Z,1.70
2023-03-25T05:22:49.369Z,0.90
2023-03-25T05:24:53.393Z,0.85
2023-03-25T05:26:56.623Z,1.48
2023-03-25T05:29:01.696Z,1.10
2023-03-25T05:31:08.180Z,1.00
2023-03-25T05:33:11.235Z,1.05
2023-03-25T05:35:15.125Z,1.10
2023-03-25T05:37:17.815Z,1.00
2023-03-25T05:39:20.361Z,1.20
2023-03-25T05:41:33.324Z,1.17
2023-03-25T05:43:35.966Z,1.00
2023-03-25T05:45:38.531Z,1.25
2023-03-25T05:47:41.239Z,0.90
2023-03-25T05:49:43.819Z,1.33
2023-03-25T05:51:49.766Z,1.27
2023-03-25T05:53:53.223Z,0.80
2023-03-25T05:55:55.815Z,1.35
2023-03-25T05:57:58.788Z,1.00
2023-03-25T06:00:01.621Z,1.05
2023-03-25T06:02:04.237Z,1.20
2023-03-25T06:04:10.011Z,1.25
2023-03-25T06:06:14.066Z,0.98
2023-03-25T06:08:19.673Z,1.08
2023-03-25T06:10:22.787Z,1.15
2023-03-25T06:12:27.439Z,1.92
2023-03-25T06:14:30.036Z,1.35
2023-03-25T06:16:35.609Z,1.50
2023-03-25T06:18:38.569Z,1.25
2023-03-25T06:20:41.120Z,1.50
2023-03-25T06:22:45.834Z,1.40
2023-03-25T06:24:49.824Z,1.02
2023-03-25T06:26:52.822Z,1.50
2023-03-25T06:28:55.611Z,1.90
2023-03-25T06:30:58.370Z,1.20
2023-03-25T06:33:03.113Z,1.45
2023-03-25T06:35:07.859Z,1.05
2023-03-25T06:37:11.452Z,1.20
2023-03-25T06:39:14.105Z,1.45
2023-03-25T06:41:20.362Z,0.93
2023-03-25T06:43:23.231Z,1.00
2023-03-25T06:45:25.802Z,0.85
2023-03-25T06:47:28.378Z,1.13
2023-03-25T06:49:31.197Z,1.42
2023-03-25T06:51:33.761Z,1.42
2023-03-25T06:53:36.377Z,1.00
2023-03-25T06:55:39.564Z,1.10
2023-03-25T06:57:43.585Z,1.55
2023-03-25T06:59:47.268Z,1.35
2023-03-25T07:01:50.018Z,1.17
2023-03-25T07:03:52.721Z,0.98
2023-03-25T07:05:55.293Z,0.90
2023-03-25T07:07:58.809Z,0.77
2023-03-25T07:10:01.606Z,1.00
2023-03-25T07:12:06.417Z,1.20
2023-03-25T07:14:12.332Z,1.35
2023-03-25T07:16:15.121Z,0.88
2023-03-25T07:18:17.746Z,0.80
2023-03-25T07:20:20.325Z,1.02
2023-03-25T07:22:22.905Z,0.90
2023-03-25T07:24:25.623Z,0.60
2023-03-25T07:26:28.180Z,0.82
2023-03-25T07:28:30.827Z,0.70
2023-03-25T07:30:34.772Z,1.00
2023-03-25T07:32:37.354Z,0.98
2023-03-25T07:34:39.977Z,0.70
2023-03-25T07:36:42.521Z,1.08
2023-03-25T07:38:45.254Z,0.80
2023-03-25T07:40:50.195Z,1.05
2023-03-25T07:42:53.044Z,0.70
2023-03-25T07:44:55.610Z,0.60
2023-03-25T07:46:59.544Z,0.60
2023-03-25T07:49:02.235Z,0.80
2023-03-25T07:51:06.513Z,0.80
2023-03-25T07:53:09.102Z,0.80
2023-03-25T07:55:11.704Z,0.80
2023-03-25T07:57:14.290Z,0.70
2023-03-25T07:59:16.842Z,1.10
2023-03-25T08:01:19.407Z,0.80
2023-03-25T08:03:23.393Z,0.68
2023-03-25T08:05:26.037Z,0.63
2023-03-25T08:07:28.824Z,0.50
2023-03-25T08:09:33.597Z,0.60
2023-03-25T08:11:36.498Z,0.40
2023-03-25T08:13:42.010Z,0.55
2023-03-25T08:15:44.577Z,0.50
2023-03-25T08:17:47.758Z,0.57
2023-03-25T08:19:51.708Z,0.50
2023-03-25T08:21:54.287Z,0.43
2023-03-25T08:24:02.337Z,0.60
2023-03-25T08:26:06.435Z,0.70
2023-03-25T08:28:08.997Z,0.70
2023-03-25T08:30:15.049Z,0.80
2023-03-25T08:32:17.625Z,0.70
2023-03-25T08:34:22.118Z,0.60
2023-03-25T08:36:26.037Z,0.50
2023-03-25T08:38:34.469Z,0.52
2023-03-25T08:40:37.703Z,0.60
2023-03-25T08:42:43.511Z,0.80
2023-03-25T08:44:46.077Z,0.70
2023-03-25T08:46:48.783Z,0.60
2023-03-25T08:48:51.354Z,0.60
2023-03-25T08:50:54.276Z,0.80
2023-03-25T08:52:58.941Z,0.77
2023-03-25T08:55:01.512Z,0.52
2023-03-25T08:57:04.350Z,0.70
2023-03-25T08:59:06.958Z,0.73
2023-03-25T09:01:09.547Z,0.60
2023-03-25T09:03:12.318Z,0.85
2023-03-25T09:05:16.005Z,0.50
2023-03-25T09:07:19.867Z,0.70
2023-03-25T09:09:24.198Z,0.98
2023-03-25T09:11:36.152Z,0.55
2023-03-25T09:13:39.288Z,0.90
2023-03-25T09:15:42.264Z,0.50
2023-03-25T09:17:45.244Z,0.60
2023-03-25T09:19:47.968Z,0.88
2023-03-25T09:21:50.789Z,0.57
2023-03-25T09:23:53.695Z,0.90
2023-03-25T09:26:03.816Z,1.15
2023-03-25T09:28:06.598Z,0.70
2023-03-25T09:30:10.285Z,0.68
2023-03-25T09:32:13.992Z,0.80
2023-03-25T09:34:16.570Z,1.00
2023-03-25T09:36:19.231Z,0.80
2023-03-25T09:38:22.278Z,1.00
2023-03-25T09:40:25.159Z,0.80
2023-03-25T09:43:01.639Z,0.60
2023-03-25T09:45:15.883Z,0.70
2023-03-25T09:47:21.218Z,0.80
2023-03-25T09:49:31.318Z,0.70
2023-03-25T09:51:36.981Z,0.82
2023-03-25T09:53:44.526Z,0.60
2023-03-25T09:55:48.629Z,0.85
2023-03-25T09:57:57.427Z,0.60
2023-03-25T10:00:06.762Z,0.70
2023-03-25T10:02:24.577Z,0.82
2023-03-25T10:04:47.550Z,0.88
2023-03-25T10:07:03.509Z,1.20
2023-03-25T10:09:27.205Z,0.80
2023-03-25T10:11:37.442Z,1.33
2023-03-25T10:13:49.233Z,0.70
2023-03-25T10:18:19.956Z,1.27
2023-03-25T10:22:36.515Z,0.65
2023-03-25T10:24:45.577Z,0.70
2023-03-25T10:26:53.676Z,0.85
2023-03-25T10:29:03.695Z,0.73
2023-03-25T10:31:10.180Z,0.85
2023-03-25T10:33:19.894Z,0.82
2023-03-25T10:35:25.797Z,1.05
2023-03-25T10:37:32.659Z,0.93
2023-03-25T10:39:38.172Z,0.90
2023-03-25T10:41:43.376Z,0.60
2023-03-25T10:43:46.015Z,0.80
2023-03-25T10:45:52.390Z,0.68
2023-03-25T10:48:01.050Z,0.60
2023-03-25T10:50:04.557Z,0.60
2023-03-25T10:52:07.549Z,1.00
2023-03-25T10:54:13.277Z,0.77
2023-03-25T10:56:18.702Z,0.82
2023-03-25T10:58:21.538Z,0.65
2023-03-25T11:00:26.206Z,1.00
2023-03-25T11:02:32.265Z,0.80
2023-03-25T11:04:39.530Z,0.80
2023-03-25T11:06:46.750Z,0.85
2023-03-25T11:09:18.438Z,0.95
2023-03-25T11:11:21.193Z,0.80
2023-03-25T11:13:26.715Z,0.82
2023-03-25T11:15:32.734Z,0.70
2023-03-25T11:17:36.753Z,0.80
2023-03-25T11:19:42.939Z,0.75
2023-03-25T11:21:49.026Z,0.80
2023-03-25T11:23:53.055Z,1.25
2023-03-25T11:25:56.794Z,0.57
2023-03-25T11:28:02.971Z,0.75
2023-03-25T11:30:15.460Z,0.80
2023-03-25T11:32:18.164Z,0.85
2023-03-25T11:34:24.055Z,0.90
2023-03-25T11:36:29.966Z,0.98
2023-03-25T11:38:34.394Z,0.90
2023-03-25T11:40:36.990Z,0.70
2023-03-25T11:42:42.613Z,0.93
2023-03-25T11:44:52.118Z,0.93
2023-03-25T11:46:58.324Z,0.82
2023-03-25T11:49:11.866Z,0.90
2023-03-25T11:51:20.248Z,1.25
2023-03-25T11:53:28.003Z,0.90
2023-03-25T11:55:37.035Z,1.15
2023-03-25T11:57:42.728Z,0.90
2023-03-25T11:59:46.876Z,0.80
2023-03-25T12:01:51.409Z,0.70
2023-03-25T12:04:06.294Z,1.23
2023-03-25T12:06:20.587Z,0.70
2023-03-25T12:08:23.262Z,0.80
2023-03-25T12:10:38.982Z,0.88
2023-03-25T12:12:48.569Z,1.00
2023-03-25T12:15:04.866Z,1.00
2023-03-25T12:17:17.699Z,0.88
2023-03-25T12:19:29.883Z,0.98
2023-03-25T12:21:47.796Z,0.80
2023-03-25T12:23:59.897Z,0.75
2023-03-25T12:26:11.073Z,0.80
2023-03-25T12:28:40.069Z,0.80
2023-03-25T12:30:55.256Z,0.75
2023-03-25T12:33:07.038Z,1.00
2023-03-25T12:37:31.598Z,0.65
2023-03-25T12:39:50.209Z,1.38
2023-03-25T12:42:02.809Z,0.60
2023-03-25T12:44:11.486Z,0.80
2023-03-25T12:46:25.533Z,0.70
2023-03-25T12:48:40.939Z,0.80
2023-03-25T12:50:54.462Z,0.90
2023-03-25T12:53:11.794Z,0.73
2023-03-25T12:55:32.604Z,0.65
2023-03-25T12:57:52.515Z,0.55
2023-03-25T13:00:09.113Z,0.65
2023-03-25T13:02:27.069Z,0.75
2023-03-25T13:04:49.733Z,0.70
2023-03-25T13:07:00.139Z,0.73
2023-03-25T13:09:12.514Z,0.88
2023-03-25T13:11:21.343Z,0.80
2023-03-25T13:13:27.609Z,0.70
2023-03-25T13:15:36.032Z,0.85
2023-03-25T13:17:46.422Z,0.77
2023-03-25T13:19:49.574Z,0.80
2023-03-25T13:21:55.374Z,0.65
2023-03-25T13:24:02.726Z,0.70
2023-03-25T13:26:11.733Z,0.88
2023-03-25T13:28:18.391Z,0.73
2023-03-25T13:30:32.565Z,0.80
2023-03-25T13:32:40.214Z,0.57
2023-03-25T13:34:50.091Z,0.60
2023-03-25T13:37:04.843Z,0.60
2023-03-25T13:39:14.696Z,0.80
2023-03-25T13:41:26.677Z,0.80
2023-03-25T13:43:34.103Z,0.90
2023-03-25T13:45:45.022Z,0.90
2023-03-25T13:47:55.373Z,0.60
2023-03-25T13:50:02.385Z,0.73
2023-03-25T13:52:07.485Z,0.70
2023-03-25T13:54:16.126Z,0.70
2023-03-25T13:56:54.871Z,0.80
2023-03-25T13:59:18.547Z,1.00
2023-03-25T14:01:37.882Z,0.50
2023-03-25T14:04:04.156Z,0.80
2023-03-25T14:06:39.234Z,0.70
2023-03-25T14:09:35.715Z,0.73
2023-03-25T14:11:44.058Z,0.70
2023-03-25T14:13:53.487Z,0.82
2023-03-25T14:16:04.058Z,1.20
2023-03-25T14:18:13.686Z,0.80
2023-03-25T14:20:24.452Z,0.82
2023-03-25T14:22:29.736Z,0.90
2023-03-25T14:24:34.864Z,0.73
2023-03-25T14:26:44.490Z,1.42
2023-03-25T14:28:48.697Z,0.90
2023-03-25T14:31:11.226Z,0.70
2023-03-25T14:33:13.910Z,0.75
2023-03-25T14:35:59.272Z,0.70
2023-03-25T14:38:42.707Z,0.70
2023-03-25T14:41:02.726Z,0.70
2023-03-25T14:43:21.200Z,0.75
2023-03-25T14:45:59.494Z,0.88
2023-03-25T14:48:03.489Z,0.73
2023-03-25T14:50:32.795Z,0.80
2023-03-25T14:52:41.590Z,0.90
2023-03-25T14:54:44.677Z,0.50
2023-03-25T14:56:54.608Z,0.85
2023-03-25T14:59:01.540Z,0.85
2023-03-25T15:01:07.694Z,1.00
2023-03-25T15:03:14.211Z,0.90
2023-03-25T15:05:19.996Z,1.00
2023-03-25T15:07:42.916Z,0.88
2023-03-25T15:09:50.701Z,1.02
2023-03-25T15:11:59.975Z,0.77
2023-03-25T15:14:06.882Z,1.27
2023-03-25T15:16:18.953Z,0.98
2023-03-25T15:18:54.644Z,1.02
2023-03-25T15:21:04.231Z,0.98
2023-03-25T15:23:32.638Z,0.90
2023-03-25T15:25:37.514Z,1.23
2023-03-25T15:28:11.797Z,1.00
2023-03-25T15:30:51.829Z,0.70
2023-03-25T15:33:11.870Z,1.00
2023-03-25T15:35:34.561Z,1.05
2023-03-25T15:38:02.082Z,1.02
2023-03-25T15:40:14.817Z,1.40
2023-03-25T15:42:50.305Z,0.95
2023-03-25T15:45:16.336Z,0.70
2023-03-25T15:47:59.064Z,0.60
2023-03-25T15:50:36.288Z,0.70
2023-03-25T15:53:05.774Z,0.80
2023-03-25T15:55:10.465Z,1.05
2023-03-25T15:57:22.593Z,0.80
2023-03-25T15:59:34.876Z,0.82
2023-03-25T16:01:42.690Z,0.80
2023-03-25T16:03:46.551Z,0.77
2023-03-25T16:05:53.035Z,0.80
2023-03-25T16:07:58.989Z,0.80
2023-03-25T16:10:14.718Z,0.80
2023-03-25T16:12:22.178Z,0.90
2023-03-25T16:14:25.271Z,0.90
2023-03-25T16:16:34.391Z,0.75
2023-03-25T16:18:41.268Z,1.10
2023-03-25T16:20:44.710Z,1.88
2023-03-25T16:22:50.507Z,0.90
2023-03-25T16:24:55.617Z,1.02
2023-03-25T16:26:58.164Z,1.17
2023-03-25T16:29:08.561Z,1.10
2023-03-25T16:31:28.393Z,0.85
2023-03-25T16:33:33.056Z,1.15
2023-03-25T16:35:39.680Z,1.00
2023-03-25T16:37:42.451Z,0.88
2023-03-25T16:39:45.931Z,1.27
2023-03-25T16:41:50.720Z,0.88
2023-03-25T16:43:54.861Z,1.10
2023-03-25T16:45:59.483Z,1.00
2023-03-25T16:48:07.147Z,1.20
2023-03-25T16:50:18.865Z,1.55
2023-03-25T16:52:26.477Z,1.50
2023-03-25T16:54:36.124Z,1.00
2023-03-25T16:56:40.358Z,1.00
2023-03-25T16:58:57.846Z,1.33
2023-03-25T17:01:02.676Z,2.00
2023-03-25T17:03:05.891Z,1.10
2023-03-25T17:05:16.160Z,1.27
2023-03-25T17:07:22.524Z,1.17
2023-03-25T17:09:34.033Z,1.48
2023-03-25T17:11:37.043Z,1.27
2023-03-25T17:13:45.230Z,1.48
2023-03-25T17:15:49.370Z,1.70
2023-03-25T17:17:56.590Z,1.10
2023-03-25T17:20:06.035Z,1.30
2023-03-25T17:22:17.391Z,1.40
2023-03-25T17:24:23.913Z,1.42
2023-03-25T17:26:33.027Z,1.40
2023-03-25T17:28:39.002Z,1.10
2023-03-25T17:30:45.996Z,1.20
2023-03-25T17:32:51.050Z,1.00
2023-03-25T17:34:58.742Z,1.23
2023-03-25T17:37:03.920Z,1.33
2023-03-25T17:39:15.581Z,1.35
2023-03-25T17:41:19.747Z,1.40
2023-03-25T17:43:25.999Z,1.20
2023-03-25T17:45:28.574Z,1.20
2023-03-25T17:47:31.178Z,1.30
2023-03-25T17:49:34.076Z,1.20
2023-03-25T17:51:36.714Z,1.23
2023-03-25T17:53:39.293Z,1.45
2023-03-25T17:55:41.827Z,1.20
2023-03-25T17:57:44.689Z,2.17
2023-03-25T17:59:48.983Z,1.30
2023-03-25T18:01:51.768Z,1.50
2023-03-25T18:03:54.889Z,1.50
2023-03-25T18:05:58.519Z,1.60
2023-03-25T18:08:01.988Z,1.40
2023-03-25T18:10:14.973Z,1.30
2023-03-25T18:12:17.555Z,2.05
2023-03-25T18:14:20.268Z,1.35
2023-03-25T18:16:25.457Z,1.45
2023-03-25T18:18:28.077Z,1.30
2023-03-25T18:20:33.338Z,1.40
2023-03-25T18:22:36.650Z,1.23
2023-03-25T18:24:39.939Z,1.48
2023-03-25T18:26:44.382Z,1.23
2023-03-25T18:28:47.316Z,1.17
2023-03-25T18:30:54.400Z,1.40
2023-03-25T18:32:59.176Z,1.10
2023-03-25T18:35:01.764Z,1.00
2023-03-25T18:37:04.628Z,1.20
2023-03-25T18:39:08.277Z,1.48
2023-03-25T18:41:13.850Z,1.50
2023-03-25T18:43:17.118Z,1.70
2023-03-25T18:45:20.193Z,1.40
2023-03-25T18:47:24.219Z,0.93
2023-03-25T18:49:29.049Z,1.30
2023-03-25T18:51:32.099Z,1.10
2023-03-25T18:53:34.654Z,1.92
2023-03-25T18:55:38.153Z,1.23
2023-03-25T18:57:42.260Z,1.52
2023-03-25T18:59:44.867Z,0.95
2023-03-25T19:01:47.970Z,0.70
2023-03-25T19:03:51.492Z,0.93
2023-03-25T19:05:55.417Z,1.00
2023-03-25T19:07:57.984Z,0.90
2023-03-25T19:10:00.552Z,1.25
2023-03-25T19:12:03.100Z,1.15
2023-03-25T19:14:06.129Z,1.20
2023-03-25T19:16:09.430Z,1.38
2023-03-25T19:18:18.068Z,1.10
2023-03-25T19:20:23.245Z,1.30
2023-03-25T19:22:29.412Z,1.45
2023-03-25T19:24:32.019Z,1.15
2023-03-25T19:26:34.694Z,1.25
2023-03-25T19:28:37.298Z,1.20
2023-03-25T19:30:44.953Z,1.58
2023-03-25T19:32:48.364Z,1.98
2023-03-25T19:34:51.367Z,1.40
2023-03-25T19:37:02.318Z,1.58
2023-03-25T19:39:06.653Z,1.13
2023-03-25T19:41:11.278Z,2.08
2023-03-25T19:43:13.866Z,1.95
2023-03-25T19:45:17.989Z,1.95
2023-03-25T19:47:20.547Z,2.00
2023-03-25T19:49:32.927Z,1.80
2023-03-25T19:51:43.097Z,1.80
2023-03-25T19:53:45.676Z,1.88
2023-03-25T19:55:51.441Z,1.50
2023-03-25T19:57:55.113Z,1.70
2023-03-25T19:59:57.737Z,1.92
2023-03-25T20:02:01.175Z,1.90
2023-03-25T20:04:04.770Z,1.90
2023-03-25T20:06:08.814Z,1.70
2023-03-25T20:08:11.767Z,2.10
2023-03-25T20:10:20.166Z,1.85
2023-03-25T20:12:24.340Z,2.70
2023-03-25T20:14:27.076Z,1.88
2023-03-25T20:16:30.789Z,2.53
2023-03-25T20:18:33.778Z,2.63
2023-03-25T20:20:36.363Z,2.53
2023-03-25T20:22:39.891Z,2.40
2023-03-25T20:24:42.506Z,2.78
2023-03-25T20:26:45.514Z,1.95
2023-03-25T20:28:49.440Z,2.03
2023-03-25T20:30:52.290Z,1.67
2023-03-25T20:32:55.017Z,1.95
2023-03-25T20:34:57.652Z,1.27
2023-03-25T20:37:01.419Z,1.45
2023-03-25T20:39:05.631Z,2.80
2023-03-25T20:41:08.461Z,2.83
2023-03-25T20:43:13.510Z,1.60
2023-03-25T20:45:18.927Z,1.70
2023-03-25T20:47:21.503Z,1.48
2023-03-25T20:49:24.152Z,1.65
2023-03-25T20:51:26.770Z,2.40
2023-03-25T20:53:30.262Z,2.38
2023-03-25T20:55:32.873Z,1.98
2023-03-25T20:57:36.049Z,1.90
2023-03-25T20:59:38.640Z,1.50
2023-03-25T21:01:42.663Z,1.58
2023-03-25T21:03:45.488Z,1.50
2023-03-25T21:05:48.054Z,1.60
2023-03-25T21:07:51.060Z,1.65
2023-03-25T21:09:53.707Z,1.80
2023-03-25T21:11:56.518Z,2.20
2023-03-25T21:13:59.574Z,1.83
2023-03-25T21:16:03.928Z,1.95
2023-03-25T21:18:11.072Z,2.80
2023-03-25T21:20:14.003Z,2.70
2023-03-25T21:22:17.049Z,1.98
2023-03-25T21:24:21.546Z,2.63
2023-03-25T21:26:24.629Z,2.28
2023-03-25T21:28:27.737Z,1.90
2023-03-25T21:30:33.032Z,1.80
2023-03-25T21:32:35.643Z,2.03
2023-03-25T21:34:40.573Z,1.30
2023-03-25T21:36:43.664Z,1.40
2023-03-25T21:38:47.048Z,1.70
2023-03-25T21:40:55.386Z,1.83
2023-03-25T21:42:57.981Z,2.30
2023-03-25T21:45:02.606Z,1.48
2023-03-25T21:47:09.051Z,1.52
2023-03-25T21:49:15.413Z,1.70
2023-03-25T21:51:20.300Z,1.33
2023-03-25T21:53:24.715Z,1.50
2023-03-25T21:55:27.508Z,1.77
2023-03-25T21:57:30.524Z,1.80
2023-03-25T21:59:33.109Z,1.55
2023-03-25T22:01:35.988Z,1.20
2023-03-25T22:03:40.262Z,1.50
2023-03-25T22:05:42.959Z,1.50
2023-03-25T22:07:46.927Z,1.80
2023-03-25T22:09:49.488Z,1.52
2023-03-25T22:11:52.042Z,1.35
2023-03-25T22:13:54.620Z,1.48
2023-03-25T22:15:57.258Z,1.33
2023-03-25T22:17:59.879Z,1.35
2023-03-25T22:20:02.484Z,1.40
2023-03-25T22:22:10.791Z,1.42
2023-03-25T22:24:14.853Z,1.45
2023-03-25T22:26:19.276Z,1.45
2023-03-25T22:28:21.826Z,1.48
2023-03-25T22:30:24.397Z,1.90
2023-03-25T22:32:27.548Z,1.73
2023-03-25T22:34:30.767Z,1.70
2023-03-25T22:36:35.403Z,1.50
2023-03-25T22:38:38.003Z,1.50
2023-03-25T22:40:41.963Z,1.60
2023-03-25T22:42:44.534Z,1.48
2023-03-25T22:44:47.112Z,1.10
2023-03-25T22:46:50.459Z,1.23
2023-03-25T22:48:53.157Z,1.00
2023-03-25T22:50:56.093Z,1.25
2023-03-25T22:52:58.681Z,1.60
2023-03-25T22:55:01.293Z,1.20
2023-03-25T22:57:05.664Z,1.30
2023-03-25T22:59:09.441Z,1.52
2023-03-25T23:01:19.945Z,1.02
2023-03-25T23:03:23.411Z,1.02
2023-03-25T23:05:26.231Z,1.23
2023-03-25T23:07:28.864Z,1.60
2023-03-25T23:09:42.315Z,1.08
2023-03-25T23:11:45.656Z,1.02
2023-03-25T23:13:51.860Z,1.60
2023-03-25T23:16:02.287Z,1.55
2023-03-25T23:18:05.020Z,1.17
2023-03-25T23:20:09.618Z,1.30
2023-03-25T23:22:12.192Z,1.85
2023-03-25T23:24:14.772Z,1.13
2023-03-25T23:26:19.805Z,1.50
2023-03-25T23:28:22.514Z,1.40
2023-03-25T23:30:26.470Z,1.27
2023-03-25T23:32:29.074Z,1.40
2023-03-25T23:34:33.795Z,1.77
2023-03-25T23:36:38.374Z,1.48
2023-03-25T23:38:40.974Z,1.15
2023-03-25T23:40:43.533Z,1.90
2023-03-25T23:42:46.247Z,1.17
2023-03-25T23:44:49.405Z,1.30
2023-03-25T23:46:53.391Z,1.50
2023-03-25T23:49:02.060Z,1.30
2023-03-25T23:51:05.158Z,1.33
2023-03-25T23:53:07.695Z,1.20
2023-03-25T23:55:12.315Z,1.20
2023-03-25T23:57:14.944Z,1.30
2023-03-25T23:59:17.503Z,1.20
